Time;durP1;ratioP1;P1;durP2;ratioP2;P2;SDS_P1;SDS_P2;PMS_P1;PMS_P2;Temp;Humidity;BMP_temperature;BMP_pressure;BME280_temperature;BME280_humidity;BME280_pressure;Samples;Min_cycle;Max_cycle;Signal;HPM_P1;HPM_P2
2023/08/17 00:01:34;;;;;;;7.45;6.85;;;20.60;99.90;;;;;;4900860;29;20403;-81
2023/08/17 00:04:00;;;;;;;6.77;6.17;;;20.70;99.90;;;;;;4899582;29;20494;-81
2023/08/17 00:06:25;;;;;;;7.35;6.65;;;21.30;99.90;;;;;;4898544;29;20414;-82
2023/08/17 00:08:51;;;;;;;7.70;7.00;;;21.00;99.90;;;;;;4898649;29;20454;-81
2023/08/17 00:11:16;;;;;;;9.27;7.30;;;20.90;99.90;;;;;;4896488;29;20419;-81
2023/08/17 00:13:42;;;;;;;8.10;7.40;;;21.40;99.90;;;;;;4899271;29;20840;-81
2023/08/17 00:16:08;;;;;;;7.40;6.80;;;20.60;99.90;;;;;;4900455;29;20399;-81
2023/08/17 00:18:33;;;;;;;7.88;7.18;;;20.00;99.90;;;;;;4900499;29;20458;-81
2023/08/17 00:20:59;;;;;;;8.40;7.60;;;20.80;99.90;;;;;;4900488;29;20411;-81
2023/08/17 00:23:24;;;;;;;7.50;6.80;;;21.00;99.90;;;;;;4901930;29;20399;-81
2023/08/17 00:25:50;;;;;;;7.50;6.90;;;20.70;99.90;;;;;;4901378;29;20414;-80
2023/08/17 00:28:16;;;;;;;7.40;6.80;;;19.80;99.90;;;;;;4901082;29;20744;-80
2023/08/17 00:30:41;;;;;;;8.30;7.60;;;22.00;99.90;;;;;;4901050;29;20399;-81
2023/08/17 00:33:07;;;;;;;8.03;7.40;;;20.70;99.90;;;;;;4901173;29;20406;-81
2023/08/17 00:35:32;;;;;;;8.20;7.30;;;20.40;99.90;;;;;;4899800;29;20414;-81
2023/08/17 00:37:59;;;;;;;8.40;7.70;;;20.80;99.90;;;;;;4899470;29;20982;-81
2023/08/17 00:40:24;;;;;;;8.88;8.07;;;20.20;99.90;;;;;;4900440;29;20425;-81
2023/08/17 00:42:50;;;;;;;7.90;7.20;;;20.50;99.90;;;;;;4899544;29;20395;-81
2023/08/17 00:45:15;;;;;;;8.57;7.67;;;20.30;99.90;;;;;;4899658;29;20398;-81
2023/08/17 00:47:42;;;;;;;8.30;7.70;;;20.60;99.90;;;;;;4899590;29;20894;-81
2023/08/17 00:50:08;;;;;;;8.57;7.65;;;20.50;99.90;;;;;;4891838;29;20404;-81
2023/08/17 00:52:34;;;;;;;8.10;7.30;;;20.40;99.90;;;;;;4898568;29;20407;-81
2023/08/17 00:55:01;;;;;;;8.30;7.60;;;20.30;99.90;;;;;;4897427;29;20879;-81
2023/08/17 00:57:27;;;;;;;9.32;7.80;;;19.70;99.90;;;;;;4897892;29;20407;-80
2023/08/17 00:59:52;;;;;;;7.18;6.57;;;20.90;99.90;;;;;;4911519;29;20410;-79
2023/08/17 01:02:19;;;;;;;7.65;6.95;;;20.60;99.90;;;;;;4901859;29;20458;-81
2023/08/17 01:04:44;;;;;;;7.85;7.15;;;20.30;99.90;;;;;;4896924;29;20490;-80
2023/08/17 01:07:10;;;;;;;8.23;7.40;;;20.30;99.90;;;;;;4899915;29;20431;-81
2023/08/17 01:09:36;;;;;;;7.80;7.00;;;20.20;99.90;;;;;;4899749;29;20779;-81
2023/08/17 01:12:17;;;;;;;7.82;7.13;;;21.20;99.90;;;;;;4900089;29;20421;-81
2023/08/17 01:15:20;;;;;;;7.78;7.15;;;20.10;99.90;;;;;;4898183;29;20788;-81
2023/08/17 01:18:21;;;;;;;6.95;6.22;;;20.40;99.90;;;;;;4851299;29;20423;-81
2023/08/17 01:20:49;;;;;;;8.30;7.60;;;20.10;99.90;;;;;;4895594;29;20402;-80
2023/08/17 01:23:14;;;;;;;8.10;7.40;;;20.40;99.90;;;;;;4911073;29;20410;-80
2023/08/17 01:25:40;;;;;;;7.97;7.27;;;19.40;99.90;;;;;;4908639;29;20411;-81
2023/08/17 01:28:06;;;;;;;9.18;7.40;;;19.40;99.90;;;;;;4899797;29;20880;-80
2023/08/17 01:30:55;;;;;;;7.80;7.10;;;19.90;99.90;;;;;;4898653;29;20407;-80
2023/08/17 01:33:28;;;;;;;8.38;7.57;;;19.90;99.90;;;;;;4881083;29;20419;-81
2023/08/17 01:36:00;;;;;;;9.40;7.77;;;20.00;99.90;;;;;;4880242;29;20492;-81
2023/08/17 01:38:29;;;;;;;7.55;6.95;;;19.80;99.90;;;;;;4880328;29;20396;-81
2023/08/17 01:40:55;;;;;;;7.43;6.70;;;20.80;99.90;;;;;;4879427;29;20408;-81
2023/08/17 01:43:20;;;;;;;8.20;7.40;;;19.80;99.90;;;;;;4899213;29;20417;-81
2023/08/17 01:45:46;;;;;;;8.63;7.77;;;19.40;99.90;;;;;;4898103;29;20423;-81
2023/08/17 01:48:12;;;;;;;8.23;7.43;;;19.90;99.90;;;;;;4899057;29;20394;-81
2023/08/17 01:50:37;;;;;;;8.52;7.38;;;19.80;99.90;;;;;;4897762;29;20407;-80
2023/08/17 01:53:03;;;;;;;8.17;7.37;;;19.80;99.90;;;;;;4898934;29;20918;-81
2023/08/17 01:55:28;;;;;;;8.65;7.82;;;19.80;99.90;;;;;;4897119;29;20479;-80
2023/08/17 01:57:54;;;;;;;8.87;7.70;;;19.80;99.90;;;;;;4896849;29;20823;-81
2023/08/17 02:00:19;;;;;;;7.87;7.17;;;19.90;99.90;;;;;;4897476;29;20399;-80
2023/08/17 02:02:45;;;;;;;7.97;7.00;;;19.90;99.90;;;;;;4897172;29;20426;-81
2023/08/17 02:05:11;;;;;;;8.47;7.77;;;19.80;99.90;;;;;;4899293;29;20922;-81
2023/08/17 02:07:36;;;;;;;8.20;7.50;;;19.70;99.90;;;;;;4896255;29;20414;-81
2023/08/17 02:10:02;;;;;;;8.20;7.40;;;19.70;99.90;;;;;;4898393;29;20403;-80
2023/08/17 02:12:28;;;;;;;8.73;7.38;;;19.60;99.90;;;;;;4898092;29;20421;-81
2023/08/17 02:14:53;;;;;;;8.02;7.22;;;19.00;99.90;;;;;;4898712;29;20411;-81
2023/08/17 02:17:21;;;;;;;8.23;7.43;;;19.10;99.90;;;;;;4897077;29;20409;-81
2023/08/17 02:19:47;;;;;;;7.85;7.15;;;19.90;99.90;;;;;;4897514;29;20407;-81
2023/08/17 02:22:13;;;;;;;8.35;7.55;;;19.60;99.90;;;;;;4899229;29;20907;-81
2023/08/17 02:24:39;;;;;;;8.68;7.88;;;19.50;99.90;;;;;;4899205;29;20435;-81
2023/08/17 02:27:04;;;;;;;8.05;7.25;;;19.50;99.90;;;;;;4897393;29;20435;-81
2023/08/17 02:29:30;;;;;;;10.00;7.80;;;19.50;99.90;;;;;;4898811;29;20405;-81
2023/08/17 02:31:55;;;;;;;8.00;7.35;;;19.50;99.90;;;;;;4896818;29;20406;-81
2023/08/17 02:34:21;;;;;;;8.50;7.80;;;19.50;99.90;;;;;;4898089;29;20426;-81
2023/08/17 02:36:47;;;;;;;7.70;7.10;;;19.40;99.90;;;;;;4897953;29;20484;-81
2023/08/17 02:39:12;;;;;;;8.23;7.37;;;19.50;99.90;;;;;;4896950;29;20403;-81
2023/08/17 02:41:38;;;;;;;8.40;7.50;;;19.40;99.90;;;;;;4898958;29;20411;-81
2023/08/17 02:44:03;;;;;;;10.30;7.00;;;19.40;99.90;;;;;;4899573;29;20453;-82
2023/08/17 02:46:29;;;;;;;8.30;7.60;;;19.30;99.90;;;;;;4902858;29;20489;-79
2023/08/17 02:48:54;;;;;;;10.70;7.78;;;19.30;99.90;;;;;;4905650;29;20402;-80
2023/08/17 02:51:20;;;;;;;7.30;6.70;;;19.40;99.90;;;;;;4908382;29;20494;-79
2023/08/17 02:53:45;;;;;;;8.35;7.55;;;18.90;99.90;;;;;;4916097;29;20425;-79
2023/08/17 02:56:11;;;;;;;7.90;7.10;;;19.30;99.90;;;;;;4914107;29;20462;-79
2023/08/17 02:58:40;;;;;;;7.88;7.18;;;18.70;99.90;;;;;;4912486;29;20490;-80
2023/08/17 03:01:09;;;;;;;8.02;7.25;;;19.20;99.90;;;;;;4913414;29;20609;-79
2023/08/17 03:03:35;;;;;;;7.88;7.10;;;19.20;99.90;;;;;;4915433;29;20399;-80
2023/08/17 03:06:02;;;;;;;7.50;6.80;;;19.10;99.90;;;;;;4903322;29;20411;-81
2023/08/17 03:08:28;;;;;;;8.30;7.60;;;19.10;99.90;;;;;;4903972;29;20399;-80
2023/08/17 03:10:53;;;;;;;8.30;7.37;;;19.10;99.90;;;;;;4903692;29;20411;-81
2023/08/17 03:13:19;;;;;;;7.63;6.97;;;20.10;99.90;;;;;;4901796;29;20435;-80
2023/08/17 03:15:44;;;;;;;8.43;7.82;;;19.50;99.90;;;;;;4902246;29;20422;-81
2023/08/17 03:18:10;;;;;;;10.03;8.30;;;18.70;99.90;;;;;;4901724;29;20397;-81
2023/08/17 03:20:36;;;;;;;8.55;7.78;;;19.20;99.90;;;;;;4901323;29;20418;-80
2023/08/17 03:23:01;;;;;;;8.43;7.73;;;18.70;99.90;;;;;;4900546;29;20807;-81
2023/08/17 03:25:27;;;;;;;8.60;7.90;;;19.10;99.90;;;;;;4901512;29;20837;-80
2023/08/17 03:27:52;;;;;;;9.27;8.37;;;18.50;99.90;;;;;;4901442;29;20786;-81
2023/08/17 03:30:18;;;;;;;9.50;8.60;;;18.90;99.90;;;;;;4900662;29;20972;-80
2023/08/17 03:32:43;;;;;;;8.00;7.30;;;19.30;99.90;;;;;;4901790;29;20426;-80
2023/08/17 03:35:09;;;;;;;8.60;7.80;;;18.40;99.90;;;;;;4883782;29;20411;-80
2023/08/17 03:37:34;;;;;;;8.70;7.80;;;19.70;99.90;;;;;;4883767;29;20459;-81
2023/08/17 03:40:03;;;;;;;8.50;7.50;;;19.20;99.90;;;;;;4884845;29;20794;-80
2023/08/17 03:42:29;;;;;;;8.07;7.28;;;19.40;99.90;;;;;;4884605;29;20826;-81
2023/08/17 03:44:54;;;;;;;7.70;7.10;;;18.80;99.90;;;;;;4901193;29;20470;-81
2023/08/17 03:47:20;;;;;;;8.13;6.80;;;19.20;99.90;;;;;;4901820;29;20426;-81
2023/08/17 03:49:46;;;;;;;8.50;7.70;;;21.50;99.90;;;;;;4901989;29;20406;-81
2023/08/17 03:52:11;;;;;;;7.90;7.10;;;19.20;99.90;;;;;;4902057;29;20450;-81
2023/08/17 03:54:37;;;;;;;7.90;7.20;;;18.80;99.90;;;;;;4899767;29;20756;-79
2023/08/17 03:57:03;;;;;;;8.23;7.63;;;19.30;99.90;;;;;;4899963;29;20406;-81
2023/08/17 03:59:28;;;;;;;8.00;7.20;;;19.40;99.90;;;;;;4903086;29;20410;-81
2023/08/17 04:01:54;;;;;;;8.03;7.23;;;19.60;99.90;;;;;;4901593;29;20410;-81
2023/08/17 04:04:19;;;;;;;8.40;7.47;;;19.10;99.90;;;;;;4902513;29;20395;-80
2023/08/17 04:06:45;;;;;;;8.03;7.23;;;19.70;99.90;;;;;;4902342;29;20399;-81
2023/08/17 04:09:11;;;;;;;7.90;7.20;;;19.20;99.90;;;;;;4902144;29;20441;-81
2023/08/17 04:11:36;;;;;;;8.23;7.53;;;20.60;99.90;;;;;;4901055;29;20411;-80
2023/08/17 04:14:03;;;;;;;8.50;7.70;;;19.60;99.90;;;;;;4900799;29;20431;-80
2023/08/17 04:16:28;;;;;;;7.90;7.20;;;19.70;99.90;;;;;;4901686;29;20395;-80
2023/08/17 04:18:54;;;;;;;7.63;6.93;;;19.60;99.90;;;;;;4901168;29;20426;-81
2023/08/17 04:21:20;;;;;;;7.38;6.72;;;18.90;99.90;;;;;;4900121;29;20937;-80
2023/08/17 04:23:46;;;;;;;7.40;6.80;;;19.40;99.90;;;;;;4901631;29;20402;-81
2023/08/17 04:26:12;;;;;;;9.93;7.57;;;19.50;99.90;;;;;;4899877;29;20421;-81
2023/08/17 04:28:37;;;;;;;7.65;6.85;;;19.20;99.90;;;;;;4898703;29;20431;-81
2023/08/17 04:31:03;;;;;;;8.20;7.40;;;19.70;99.90;;;;;;4898496;29;20858;-81
2023/08/17 04:33:28;;;;;;;8.52;7.82;;;19.60;99.90;;;;;;4899496;29;20559;-81
2023/08/17 04:35:54;;;;;;;8.00;7.40;;;19.60;99.90;;;;;;4899047;29;20763;-80
2023/08/17 04:38:20;;;;;;;7.85;7.15;;;19.20;99.90;;;;;;4898671;29;20399;-81
2023/08/17 04:40:46;;;;;;;7.65;6.95;;;19.40;99.90;;;;;;4899429;29;20398;-81
2023/08/17 04:43:11;;;;;;;8.00;7.20;;;19.50;99.90;;;;;;4904502;29;20469;-80
2023/08/17 04:45:37;;;;;;;8.50;7.70;;;19.30;99.90;;;;;;4911314;29;20489;-80
2023/08/17 04:48:02;;;;;;;8.52;7.72;;;19.80;99.90;;;;;;4900749;29;20395;-80
2023/08/17 04:50:28;;;;;;;8.50;7.37;;;19.70;99.90;;;;;;4900936;29;20410;-79
2023/08/17 04:52:53;;;;;;;6.80;6.20;;;19.80;99.90;;;;;;4901030;29;20414;-80
2023/08/17 04:55:19;;;;;;;8.43;7.63;;;19.10;99.90;;;;;;4900954;29;20411;-80
2023/08/17 04:57:44;;;;;;;8.17;7.47;;;19.50;99.90;;;;;;4899713;29;20406;-80
2023/08/17 05:00:11;;;;;;;7.83;7.13;;;19.30;99.90;;;;;;4900136;29;20415;-80
2023/08/17 05:02:37;;;;;;;7.05;6.45;;;19.70;99.90;;;;;;4901514;29;20836;-80
2023/08/17 05:05:08;;;;;;;7.40;6.78;;;20.00;99.90;;;;;;4900012;29;20410;-80
2023/08/17 05:07:34;;;;;;;7.80;6.90;;;19.60;99.90;;;;;;4898824;29;20480;-80
2023/08/17 05:10:00;;;;;;;7.95;6.60;;;19.50;99.90;;;;;;4900717;29;20422;-80
2023/08/17 05:12:26;;;;;;;7.50;6.80;;;19.50;99.90;;;;;;4900499;29;20414;-80
2023/08/17 05:14:51;;;;;;;8.27;7.22;;;19.10;99.90;;;;;;4898889;29;20482;-80
2023/08/17 05:17:17;;;;;;;8.80;7.90;;;19.50;99.90;;;;;;4898536;29;20747;-80
2023/08/17 05:19:42;;;;;;;9.40;8.30;;;19.00;99.90;;;;;;4898339;29;20410;-80
2023/08/17 05:22:13;;;;;;;9.90;9.00;;;19.40;99.90;;;;;;4898494;29;20402;-81
2023/08/17 05:24:39;;;;;;;9.80;8.50;;;19.40;99.90;;;;;;4899530;29;20410;-80
2023/08/17 05:27:05;;;;;;;10.15;9.25;;;19.40;99.90;;;;;;4897899;29;20406;-80
2023/08/17 05:29:33;;;;;;;10.85;9.30;;;19.40;99.90;;;;;;4898568;29;20951;-80
2023/08/17 05:31:59;;;;;;;11.80;10.60;;;19.00;99.90;;;;;;4899120;29;20856;-80
2023/08/17 05:34:25;;;;;;;11.37;10.17;;;20.30;99.90;;;;;;4898371;29;20442;-79
2023/08/17 05:36:50;;;;;;;12.55;11.35;;;18.90;99.90;;;;;;4899019;29;20430;-80
2023/08/17 05:39:16;;;;;;;12.07;10.73;;;20.00;99.90;;;;;;4898296;29;20402;-80
2023/08/17 05:41:41;;;;;;;13.15;11.60;;;19.50;99.90;;;;;;4897771;29;20775;-80
2023/08/17 05:44:07;;;;;;;13.30;11.57;;;19.60;99.90;;;;;;4899137;29;20411;-79
2023/08/17 05:46:33;;;;;;;12.73;11.10;;;19.50;99.90;;;;;;4899913;29;20473;-80
2023/08/17 05:49:00;;;;;;;13.20;11.80;;;20.00;99.90;;;;;;4900714;29;20457;-79
2023/08/17 05:51:25;;;;;;;12.80;10.57;;;19.20;99.90;;;;;;4901470;29;20764;-80
2023/08/17 05:53:51;;;;;;;12.00;10.80;;;19.80;99.90;;;;;;4898881;29;20415;-79
2023/08/17 05:56:17;;;;;;;12.17;10.87;;;19.20;99.90;;;;;;4900396;29;20914;-80
2023/08/17 05:58:42;;;;;;;11.32;10.23;;;19.20;99.90;;;;;;4898628;29;20410;-80
2023/08/17 06:01:09;;;;;;;12.30;11.00;;;19.20;99.90;;;;;;4901389;29;20419;-80
2023/08/17 06:03:36;;;;;;;11.37;10.23;;;18.70;99.90;;;;;;4900913;29;20399;-80
2023/08/17 06:06:02;;;;;;;10.32;9.25;;;19.80;99.90;;;;;;4904365;29;20491;-79
2023/08/17 06:08:29;;;;;;;10.27;9.38;;;19.10;99.90;;;;;;4896186;29;20411;-79
2023/08/17 06:10:54;;;;;;;10.80;9.90;;;19.20;99.90;;;;;;4895652;29;20515;-79
2023/08/17 06:13:20;;;;;;;10.03;9.07;;;19.30;99.90;;;;;;4894897;29;20488;-79
2023/08/17 06:15:45;;;;;;;10.73;9.50;;;20.00;99.90;;;;;;4897096;29;20390;-80
2023/08/17 06:18:11;;;;;;;9.80;8.90;;;19.50;99.90;;;;;;4897301;29;20429;-80
2023/08/17 06:20:37;;;;;;;10.17;9.30;;;19.10;99.90;;;;;;4902986;29;20391;-81
2023/08/17 06:23:02;;;;;;;10.27;9.27;;;19.60;99.90;;;;;;4903396;29;20394;-80
2023/08/17 06:25:28;;;;;;;10.60;9.50;;;19.60;99.90;;;;;;4901972;29;20470;-80
2023/08/17 06:27:53;;;;;;;9.90;9.00;;;19.00;99.90;;;;;;4902040;29;20422;-79
2023/08/17 06:30:19;;;;;;;9.53;8.73;;;20.10;99.90;;;;;;4902077;29;20395;-80
2023/08/17 06:32:44;;;;;;;9.80;8.90;;;19.70;99.90;;;;;;4903960;29;20421;-80
2023/08/17 06:35:10;;;;;;;9.73;8.73;;;19.90;99.90;;;;;;4907551;29;20431;-78
2023/08/17 06:37:36;;;;;;;9.33;8.53;;;19.70;99.90;;;;;;4912831;29;20394;-79
2023/08/17 06:40:05;;;;;;;9.15;8.20;;;20.00;99.90;;;;;;4902152;29;20756;-80
2023/08/17 06:42:31;;;;;;;9.95;8.60;;;20.20;99.90;;;;;;4902778;29;20413;-80
2023/08/17 06:44:57;;;;;;;9.50;8.60;;;20.40;99.90;;;;;;4903188;29;20775;-80
2023/08/17 06:47:22;;;;;;;8.90;8.20;;;21.50;99.90;;;;;;4902044;29;20450;-80
2023/08/17 06:49:48;;;;;;;10.73;9.67;;;19.50;99.90;;;;;;4900626;29;20753;-79
2023/08/17 06:52:13;;;;;;;11.70;10.50;;;20.80;99.90;;;;;;4901080;29;20411;-80
2023/08/17 06:54:39;;;;;;;10.57;9.57;;;19.50;99.90;;;;;;4902124;29;20409;-80
2023/08/17 06:57:05;;;;;;;10.97;9.97;;;20.40;99.90;;;;;;4901035;29;20934;-80
2023/08/17 06:59:33;;;;;;;12.70;11.40;;;20.20;99.90;;;;;;4901244;29;20418;-79
2023/08/17 07:01:58;;;;;;;12.30;11.00;;;20.40;99.90;;;;;;4900828;29;20394;-79
2023/08/17 07:04:24;;;;;;;10.37;9.37;;;20.40;99.90;;;;;;4900154;29;20771;-80
2023/08/17 07:06:49;;;;;;;9.30;8.50;;;20.10;99.90;;;;;;4900944;29;20450;-81
2023/08/17 07:09:15;;;;;;;10.33;8.60;;;19.70;99.90;;;;;;4901308;29;20843;-82
2023/08/17 07:11:40;;;;;;;8.87;8.07;;;19.90;99.90;;;;;;4898987;29;20474;-81
2023/08/17 07:14:06;;;;;;;9.03;8.13;;;21.60;99.90;;;;;;4899697;29;20458;-80
2023/08/17 07:16:32;;;;;;;9.83;8.90;;;20.80;99.90;;;;;;4898493;29;20455;-80
2023/08/17 07:18:57;;;;;;;9.60;8.68;;;20.90;99.90;;;;;;4900114;29;20922;-80
2023/08/17 07:21:23;;;;;;;11.70;10.50;;;21.10;99.90;;;;;;4900103;29;20553;-80
2023/08/17 07:23:50;;;;;;;11.17;9.97;;;21.20;99.90;;;;;;4898122;29;20427;-79
2023/08/17 07:26:18;;;;;;;10.30;9.35;;;21.30;99.90;;;;;;4880761;29;20765;-80
2023/08/17 07:28:44;;;;;;;10.20;9.30;;;20.80;99.90;;;;;;4880777;29;20853;-81
2023/08/17 07:31:09;;;;;;;10.87;9.90;;;21.40;99.90;;;;;;4878526;29;20444;-80
2023/08/17 07:33:35;;;;;;;10.13;9.13;;;21.00;99.90;;;;;;4879930;29;20470;-79
2023/08/17 07:36:00;;;;;;;10.23;9.33;;;21.50;99.90;;;;;;4896878;29;20398;-80
2023/08/17 07:38:26;;;;;;;10.02;9.23;;;21.60;99.90;;;;;;4899661;29;20395;-80
2023/08/17 07:40:51;;;;;;;10.37;9.37;;;21.60;99.90;;;;;;4899552;29;20772;-81
2023/08/17 07:43:17;;;;;;;9.80;8.90;;;21.10;99.90;;;;;;4898465;29;20395;-80
2023/08/17 07:45:42;;;;;;;10.50;9.60;;;21.70;99.90;;;;;;4899069;29;20486;-81
2023/08/17 07:48:08;;;;;;;10.77;9.70;;;21.30;99.90;;;;;;4897852;29;20415;-80
2023/08/17 07:50:34;;;;;;;9.97;9.07;;;21.80;99.90;;;;;;4900225;29;20403;-79
2023/08/17 07:52:59;;;;;;;9.50;8.60;;;21.00;99.90;;;;;;4898995;29;20418;-79
2023/08/17 07:55:26;;;;;;;10.70;9.70;;;22.90;99.90;;;;;;4899423;29;20407;-81
2023/08/17 07:57:51;;;;;;;10.60;9.60;;;21.80;99.90;;;;;;4899137;29;20466;-80
2023/08/17 08:00:17;;;;;;;11.40;10.30;;;21.80;99.90;;;;;;4902764;29;20915;-78
2023/08/17 08:02:43;;;;;;;13.17;11.77;;;21.80;99.90;;;;;;4898461;29;20402;-79
2023/08/17 08:05:08;;;;;;;13.07;11.60;;;21.30;99.90;;;;;;4897256;29;20847;-80
2023/08/17 08:07:34;;;;;;;12.05;10.48;;;20.80;99.90;;;;;;4896894;29;20779;-80
2023/08/17 08:09:59;;;;;;;15.53;12.70;;;22.30;99.90;;;;;;4897647;29;20771;-79
2023/08/17 08:12:25;;;;;;;13.68;11.40;;;21.80;99.90;;;;;;4898955;29;20859;-80
2023/08/17 08:14:51;;;;;;;13.27;11.80;;;21.20;99.90;;;;;;4898492;29;20411;-80
2023/08/17 08:17:16;;;;;;;13.30;12.00;;;21.20;99.90;;;;;;4897603;29;20800;-80
2023/08/17 08:19:42;;;;;;;13.87;12.47;;;20.70;99.90;;;;;;4897597;29;20945;-79
2023/08/17 08:22:07;;;;;;;15.00;12.30;;;20.90;99.90;;;;;;4897780;29;20410;-79
2023/08/17 08:24:34;;;;;;;14.23;12.20;;;21.40;99.90;;;;;;4897455;29;20482;-81
2023/08/17 08:27:01;;;;;;;14.30;12.73;;;21.30;99.90;;;;;;4898491;29;20391;-80
2023/08/17 08:29:26;;;;;;;16.40;13.38;;;20.60;99.90;;;;;;4908975;29;20413;-78
2023/08/17 08:31:53;;;;;;;13.80;12.30;;;21.20;99.90;;;;;;4901491;29;20450;-80
2023/08/17 08:34:18;;;;;;;14.98;12.55;;;20.90;99.90;;;;;;4897786;29;20615;-79
2023/08/17 08:36:44;;;;;;;14.50;12.67;;;20.80;99.90;;;;;;4898570;29;20958;-79
2023/08/17 08:39:10;;;;;;;14.30;12.40;;;21.20;99.90;;;;;;4897911;29;20463;-80
2023/08/17 08:41:37;;;;;;;12.52;11.23;;;20.90;99.90;;;;;;4898412;29;20399;-80
2023/08/17 08:44:03;;;;;;;13.88;12.48;;;20.80;99.90;;;;;;4897760;29;20899;-80
2023/08/17 08:46:32;;;;;;;13.75;10.98;;;21.20;99.90;;;;;;4896879;29;20461;-80
2023/08/17 08:48:58;;;;;;;13.20;11.82;;;21.60;99.90;;;;;;4898597;29;20756;-79
2023/08/17 08:51:30;;;;;;;12.55;11.25;;;20.90;99.90;;;;;;4899018;29;20421;-80
2023/08/17 08:54:03;;;;;;;13.38;11.63;;;21.50;99.90;;;;;;4898684;29;20774;-80
2023/08/17 08:56:32;;;;;;;12.23;10.93;;;22.40;99.90;;;;;;4896817;29;20431;-80
2023/08/17 08:59:01;;;;;;;12.95;11.38;;;22.10;99.90;;;;;;4897177;29;20445;-80
2023/08/17 09:01:26;;;;;;;12.20;10.90;;;21.90;99.90;;;;;;4896364;29;20459;-80
2023/08/17 09:03:53;;;;;;;13.85;12.35;;;22.20;99.90;;;;;;4897445;29;20398;-80
2023/08/17 09:06:20;;;;;;;12.88;11.68;;;21.80;99.90;;;;;;4898006;29;20407;-80
2023/08/17 09:08:47;;;;;;;12.25;11.15;;;22.00;99.90;;;;;;4897665;29;20395;-81
2023/08/17 09:11:13;;;;;;;11.73;10.63;;;21.50;99.90;;;;;;4897987;29;20423;-79
2023/08/17 09:13:38;;;;;;;12.47;11.17;;;22.40;99.90;;;;;;4897174;29;20399;-79
2023/08/17 09:16:04;;;;;;;12.50;10.30;;;22.20;99.90;;;;;;4898375;29;20391;-81
2023/08/17 09:18:31;;;;;;;12.30;10.90;;;21.50;99.90;;;;;;4896569;29;20399;-81
2023/08/17 09:20:56;;;;;;;11.68;10.48;;;22.10;99.90;;;;;;4897270;29;21052;-81
2023/08/17 09:23:22;;;;;;;12.27;10.97;;;21.80;99.90;;;;;;4898689;29;20399;-80
2023/08/17 09:25:51;;;;;;;11.18;10.18;;;23.10;99.90;;;;;;4902037;29;20927;-80
2023/08/17 09:28:18;;;;;;;10.15;9.15;;;22.60;99.90;;;;;;4908834;29;20403;-79
2023/08/17 09:30:54;;;;;;;11.45;10.35;;;22.20;99.90;;;;;;4907422;29;20403;-81
2023/08/17 09:33:23;;;;;;;11.35;10.35;;;23.20;99.90;;;;;;4908915;29;20846;-79
2023/08/17 09:35:50;;;;;;;12.20;11.00;;;23.00;99.90;;;;;;4903815;29;20416;-80
2023/08/17 09:38:16;;;;;;;13.05;11.68;;;22.90;99.90;;;;;;4898461;29;20396;-81
2023/08/17 09:40:42;;;;;;;12.80;11.27;;;22.20;99.90;;;;;;4899033;29;20422;-81
2023/08/17 09:43:09;;;;;;;13.65;12.07;;;23.20;99.90;;;;;;4898811;29;20386;-81
2023/08/17 09:45:37;;;;;;;12.55;11.13;;;22.90;99.90;;;;;;4898237;29;20439;-81
2023/08/17 09:48:03;;;;;;;12.02;10.93;;;22.90;99.90;;;;;;4897483;29;20771;-81
2023/08/17 09:50:28;;;;;;;12.68;10.98;;;22.80;99.90;;;;;;4896683;29;20440;-81
2023/08/17 09:52:55;;;;;;;11.90;10.80;;;23.10;99.90;;;;;;4898110;29;20411;-81
2023/08/17 09:55:22;;;;;;;14.90;11.73;;;23.10;99.90;;;;;;4901199;29;20931;-81
2023/08/17 09:57:50;;;;;;;11.07;9.88;;;23.40;99.90;;;;;;4922743;23;20426;-81
2023/08/17 10:00:16;;;;;;;11.15;9.60;;;24.70;99.90;;;;;;4921529;29;20397;-80
2023/08/17 10:02:44;;;;;;;12.10;10.90;;;23.60;99.90;;;;;;4921365;29;20397;-81
2023/08/17 10:05:12;;;;;;;11.85;10.15;;;24.70;99.90;;;;;;4923113;29;20397;-81
2023/08/17 10:07:43;;;;;;;11.00;10.00;;;23.70;99.90;;;;;;4919926;29;20796;-81
2023/08/17 10:10:10;;;;;;;10.50;9.50;;;24.20;99.90;;;;;;4903597;29;20470;-79
2023/08/17 10:12:48;;;;;;;10.98;9.88;;;23.80;99.90;;;;;;4893646;29;20416;-82
2023/08/17 10:15:17;;;;;;;12.30;10.47;;;23.50;99.90;;;;;;4885870;29;20412;-80
2023/08/17 10:17:57;;;;;;;9.43;8.63;;;24.00;99.90;;;;;;4888950;29;20443;-79
2023/08/17 10:20:24;;;;;;;10.07;9.27;;;24.00;99.90;;;;;;4886300;29;20433;-80
2023/08/17 10:22:56;;;;;;;10.90;8.70;;;24.40;99.90;;;;;;4886595;29;20401;-79
2023/08/17 10:25:23;;;;;;;9.90;9.00;;;24.60;99.90;;;;;;4899042;29;20466;-79
2023/08/17 10:27:51;;;;;;;13.60;10.00;;;24.70;99.90;;;;;;4903642;29;20407;-81
2023/08/17 10:30:17;;;;;;;10.63;9.60;;;24.90;99.90;;;;;;4901563;29;20398;-79
2023/08/17 10:32:45;;;;;;;9.30;8.38;;;25.00;99.90;;;;;;4905310;29;20421;-80
2023/08/17 10:35:11;;;;;;;9.10;8.10;;;25.00;99.90;;;;;;4889223;29;20912;-79
2023/08/17 10:37:38;;;;;;;9.43;8.52;;;25.10;99.90;;;;;;4893106;29;20413;-79
2023/08/17 10:40:04;;;;;;;8.90;8.10;;;25.30;99.90;;;;;;4903178;29;20418;-79
2023/08/17 10:42:32;;;;;;;9.55;8.60;;;25.50;99.90;;;;;;4901509;29;20410;-79
2023/08/17 10:44:57;;;;;;;8.30;7.40;;;25.60;99.90;;;;;;4902948;29;20453;-78
2023/08/17 10:47:31;;;;;;;8.25;7.55;;;26.00;99.90;;;;;;4898253;29;20403;-78
2023/08/17 10:50:25;;;;;;;8.10;7.30;;;26.00;99.90;;;;;;4885170;29;20807;-79
2023/08/17 10:52:53;;;;;;;7.90;7.20;;;26.10;99.90;;;;;;4882651;29;20984;-78
2023/08/17 10:55:39;;;;;;;8.57;7.30;;;26.30;99.90;;;;;;4883454;29;20412;-78
2023/08/17 10:58:08;;;;;;;7.25;6.38;;;26.40;99.90;;;;;;4897798;29;20403;-79
2023/08/17 11:00:37;;;;;;;6.25;5.70;;;26.70;99.90;;;;;;4906304;29;20410;-79
2023/08/17 11:03:11;;;;;;;6.63;5.97;;;27.00;99.90;;;;;;4904228;29;20450;-79
2023/08/17 11:05:40;;;;;;;6.28;5.68;;;27.00;99.90;;;;;;4900612;29;20403;-78
2023/08/17 11:08:09;;;;;;;7.38;6.00;;;27.10;99.90;;;;;;4899336;29;20501;-79
2023/08/17 11:10:35;;;;;;;6.00;5.50;;;27.20;99.90;;;;;;4901264;29;20411;-78
2023/08/17 11:13:02;;;;;;;6.60;6.10;;;27.50;99.90;;;;;;4903055;29;20440;-78
2023/08/17 11:15:44;;;;;;;6.78;6.07;;;27.40;99.90;;;;;;4903379;29;20488;-79
2023/08/17 11:18:11;;;;;;;6.23;5.73;;;27.50;99.90;;;;;;4902289;29;20803;-79
2023/08/17 11:20:39;;;;;;;5.85;5.45;;;27.70;99.90;;;;;;4892051;29;20508;-79
2023/08/17 11:23:05;;;;;;;5.38;4.97;;;27.90;99.90;;;;;;4888309;29;20588;-78
2023/08/17 11:25:32;;;;;;;6.00;5.30;;;27.90;99.90;;;;;;4902963;29;20496;-79
2023/08/17 11:27:59;;;;;;;5.60;5.00;;;28.10;99.90;;;;;;4901501;29;20406;-78
2023/08/17 11:30:25;;;;;;;4.70;4.30;;;28.30;99.90;;;;;;4902487;29;20483;-79
2023/08/17 11:32:52;;;;;;;5.40;3.60;;;28.70;99.90;;;;;;4899521;29;20427;-79
2023/08/17 11:35:18;;;;;;;4.15;3.65;;;28.70;99.90;;;;;;4883240;29;20405;-79
2023/08/17 11:37:44;;;;;;;6.10;3.40;;;29.20;99.90;;;;;;4882081;29;20405;-79
2023/08/17 11:40:12;;;;;;;5.20;3.70;;;29.20;99.90;;;;;;4890493;29;20406;-78
2023/08/17 11:42:38;;;;;;;5.20;3.70;;;30.20;99.90;;;;;;4885300;29;20463;-78
2023/08/17 11:45:05;;;;;;;5.53;3.42;;;30.10;99.90;;;;;;4882267;29;20518;-78
2023/08/17 11:47:32;;;;;;;4.07;3.40;;;30.00;99.90;;;;;;4884113;29;20896;-79
2023/08/17 11:50:06;;;;;;;4.28;3.40;;;31.00;99.90;;;;;;4882756;29;20476;-78
2023/08/17 11:52:36;;;;;;;5.82;3.50;;;31.20;99.90;;;;;;4882098;29;20415;-79
2023/08/17 11:55:05;;;;;;;5.47;3.13;;;31.50;99.90;;;;;;4885103;29;20431;-78
2023/08/17 11:57:31;;;;;;;4.72;3.10;;;31.10;99.90;;;;;;4884858;29;20400;-78
2023/08/17 11:59:59;;;;;;;4.45;3.13;;;31.70;1.00;;;;;;4893737;29;20850;-79
2023/08/17 12:02:26;;;;;;;4.95;3.55;;;31.90;1.00;;;;;;4904005;29;20411;-79
2023/08/17 12:04:52;;;;;;;4.38;3.10;;;31.40;99.90;;;;;;4904818;29;20417;-79
2023/08/17 12:07:19;;;;;;;5.82;2.80;;;31.10;1.00;;;;;;4902920;29;20395;-78
2023/08/17 12:09:45;;;;;;;6.60;3.30;;;31.80;1.00;;;;;;4900273;29;20408;-78
2023/08/17 12:12:11;;;;;;;6.18;3.30;;;31.30;1.00;;;;;;4887555;29;20412;-78
2023/08/17 12:14:41;;;;;;;5.10;3.15;;;31.30;1.00;;;;;;4886381;29;20401;-78
2023/08/17 12:17:06;;;;;;;6.30;3.40;;;31.30;1.00;;;;;;4885800;29;20529;-79
2023/08/17 12:19:32;;;;;;;5.78;3.30;;;31.40;1.00;;;;;;4884576;29;20864;-79
2023/08/17 12:21:57;;;;;;;6.90;3.60;;;30.90;1.00;;;;;;4883703;29;20415;-79
2023/08/17 12:24:26;;;;;;;5.93;3.50;;;31.00;1.00;;;;;;4894424;29;20458;-79
2023/08/17 12:26:56;;;;;;;6.07;3.35;;;31.00;1.00;;;;;;4905545;29;20398;-79
2023/08/17 12:29:21;;;;;;;5.50;3.33;;;30.40;1.00;;;;;;4901863;29;20406;-79
2023/08/17 12:31:47;;;;;;;5.23;3.70;;;31.10;1.00;;;;;;4898016;29;20469;-79
2023/08/17 12:34:13;;;;;;;6.13;3.80;;;31.20;1.00;;;;;;4885935;29;20487;-79
2023/08/17 12:36:39;;;;;;;7.97;5.67;;;31.30;2.20;;;;;;4883876;29;20415;-79
2023/08/17 12:39:05;;;;;;;6.77;3.90;;;30.50;99.90;;;;;;4884238;29;20405;-79